sensor_id;sensor_type;location;lat;lon;timestamp;P1;durP1;ratioP1;P2;durP2;ratioP2
17852;SDS011;9052;53.494;14.376;2024-02-26T00:00:41;12.23;;;8.10;;
17852;SDS011;9052;53.494;14.376;2024-02-26T00:03:08;14.43;;;8.07;;
17852;SDS011;9052;53.494;14.376;2024-02-26T00:05:35;10.67;;;8.30;;
17852;SDS011;9052;53.494;14.376;2024-02-26T00:08:05;9.57;;;7.37;;
17852;SDS011;9052;53.494;14.376;2024-02-26T00:10:33;11.60;;;7.80;;
17852;SDS011;9052;53.494;14.376;2024-02-26T00:13:00;8.70;;;7.00;;
17852;SDS011;9052;53.494;14.376;2024-02-26T00:15:27;15.57;;;7.37;;
17852;SDS011;9052;53.494;14.376;2024-02-26T00:17:54;8.60;;;6.40;;
17852;SDS011;9052;53.494;14.376;2024-02-26T00:20:21;12.33;;;6.57;;
17852;SDS011;9052;53.494;14.376;2024-02-26T00:22:48;15.90;;;8.10;;
17852;SDS011;9052;53.494;14.376;2024-02-26T00:25:16;9.50;;;6.57;;
17852;SDS011;9052;53.494;14.376;2024-02-26T00:27:43;7.07;;;6.20;;
17852;SDS011;9052;53.494;14.376;2024-02-26T00:30:10;11.80;;;6.50;;
17852;SDS011;9052;53.494;14.376;2024-02-26T00:32:38;10.37;;;6.67;;
17852;SDS011;9052;53.494;14.376;2024-02-26T00:35:05;17.83;;;7.50;;
17852;SDS011;9052;53.494;14.376;2024-02-26T00:37:34;9.73;;;6.60;;
17852;SDS011;9052;53.494;14.376;2024-02-26T00:40:01;11.33;;;7.87;;
17852;SDS011;9052;53.494;14.376;2024-02-26T00:42:30;10.67;;;6.90;;
17852;SDS011;9052;53.494;14.376;2024-02-26T00:44:57;9.17;;;7.13;;
17852;SDS011;9052;53.494;14.376;2024-02-26T00:47:24;13.27;;;6.40;;
17852;SDS011;9052;53.494;14.376;2024-02-26T00:49:51;13.00;;;7.87;;
17852;SDS011;9052;53.494;14.376;2024-02-26T00:52:18;17.23;;;7.90;;
17852;SDS011;9052;53.494;14.376;2024-02-26T00:54:45;12.60;;;8.57;;
17852;SDS011;9052;53.494;14.376;2024-02-26T00:57:12;16.60;;;9.73;;
17852;SDS011;9052;53.494;14.376;2024-02-26T00:59:40;14.73;;;9.00;;
17852;SDS011;9052;53.494;14.376;2024-02-26T01:02:07;12.50;;;7.47;;
17852;SDS011;9052;53.494;14.376;2024-02-26T01:04:34;10.40;;;7.97;;
17852;SDS011;9052;53.494;14.376;2024-02-26T01:07:01;9.43;;;7.43;;
17852;SDS011;9052;53.494;14.376;2024-02-26T01:09:28;10.13;;;8.57;;
17852;SDS011;9052;53.494;14.376;2024-02-26T01:11:55;9.60;;;7.20;;
17852;SDS011;9052;53.494;14.376;2024-02-26T01:14:22;12.30;;;7.80;;
17852;SDS011;9052;53.494;14.376;2024-02-26T01:16:50;9.23;;;7.30;;
17852;SDS011;9052;53.494;14.376;2024-02-26T01:19:17;12.90;;;7.50;;
17852;SDS011;9052;53.494;14.376;2024-02-26T01:21:44;11.50;;;8.10;;
17852;SDS011;9052;53.494;14.376;2024-02-26T01:24:11;13.17;;;7.20;;
17852;SDS011;9052;53.494;14.376;2024-02-26T01:26:38;9.30;;;6.97;;
17852;SDS011;9052;53.494;14.376;2024-02-26T01:29:05;7.70;;;6.50;;
17852;SDS011;9052;53.494;14.376;2024-02-26T01:31:32;9.10;;;8.03;;
17852;SDS011;9052;53.494;14.376;2024-02-26T01:34:01;7.33;;;6.23;;
17852;SDS011;9052;53.494;14.376;2024-02-26T01:36:28;8.53;;;7.37;;
17852;SDS011;9052;53.494;14.376;2024-02-26T01:38:55;12.90;;;7.50;;
17852;SDS011;9052;53.494;14.376;2024-02-26T01:41:22;11.57;;;7.83;;
17852;SDS011;9052;53.494;14.376;2024-02-26T01:43:49;8.20;;;6.93;;
17852;SDS011;9052;53.494;14.376;2024-02-26T01:46:16;8.70;;;7.00;;
17852;SDS011;9052;53.494;14.376;2024-02-26T01:48:44;10.97;;;8.53;;
17852;SDS011;9052;53.494;14.376;2024-02-26T01:51:13;19.20;;;8.70;;
17852;SDS011;9052;53.494;14.376;2024-02-26T01:53:41;17.50;;;10.30;;
17852;SDS011;9052;53.494;14.376;2024-02-26T01:56:08;19.07;;;9.17;;
17852;SDS011;9052;53.494;14.376;2024-02-26T01:58:35;15.33;;;8.23;;
17852;SDS011;9052;53.494;14.376;2024-02-26T02:01:03;9.50;;;7.57;;
17852;SDS011;9052;53.494;14.376;2024-02-26T02:03:30;8.80;;;7.10;;
17852;SDS011;9052;53.494;14.376;2024-02-26T02:05:57;9.50;;;7.73;;
17852;SDS011;9052;53.494;14.376;2024-02-26T02:08:26;9.50;;;6.37;;
17852;SDS011;9052;53.494;14.376;2024-02-26T02:10:54;10.67;;;8.07;;
17852;SDS011;9052;53.494;14.376;2024-02-26T02:13:20;6.77;;;6.07;;
17852;SDS011;9052;53.494;14.376;2024-02-26T02:15:47;10.93;;;7.20;;
17852;SDS011;9052;53.494;14.376;2024-02-26T02:18:14;12.13;;;7.37;;
17852;SDS011;9052;53.494;14.376;2024-02-26T02:20:43;9.20;;;6.80;;
17852;SDS011;9052;53.494;14.376;2024-02-26T02:23:10;10.80;;;7.63;;
17852;SDS011;9052;53.494;14.376;2024-02-26T02:25:37;8.80;;;6.20;;
17852;SDS011;9052;53.494;14.376;2024-02-26T02:28:04;9.43;;;5.93;;
17852;SDS011;9052;53.494;14.376;2024-02-26T02:30:32;8.93;;;5.73;;
17852;SDS011;9052;53.494;14.376;2024-02-26T02:33:00;7.97;;;6.73;;
17852;SDS011;9052;53.494;14.376;2024-02-26T02:35:28;8.00;;;5.97;;
17852;SDS011;9052;53.494;14.376;2024-02-26T02:37:56;9.13;;;6.13;;
17852;SDS011;9052;53.494;14.376;2024-02-26T02:40:23;7.53;;;5.90;;
17852;SDS011;9052;53.494;14.376;2024-02-26T02:42:50;8.50;;;6.70;;
17852;SDS011;9052;53.494;14.376;2024-02-26T02:45:17;6.47;;;5.80;;
17852;SDS011;9052;53.494;14.376;2024-02-26T02:47:44;6.40;;;5.70;;
17852;SDS011;9052;53.494;14.376;2024-02-26T02:50:11;10.50;;;6.40;;
17852;SDS011;9052;53.494;14.376;2024-02-26T02:52:39;8.03;;;4.93;;
17852;SDS011;9052;53.494;14.376;2024-02-26T02:55:08;9.00;;;5.83;;
17852;SDS011;9052;53.494;14.376;2024-02-26T02:57:35;6.87;;;6.13;;
17852;SDS011;9052;53.494;14.376;2024-02-26T03:00:06;10.73;;;5.90;;
17852;SDS011;9052;53.494;14.376;2024-02-26T03:02:34;12.83;;;5.30;;
17852;SDS011;9052;53.494;14.376;2024-02-26T03:05:02;6.90;;;5.00;;
17852;SDS011;9052;53.494;14.376;2024-02-26T03:07:29;9.40;;;5.33;;
17852;SDS011;9052;53.494;14.376;2024-02-26T03:09:56;4.17;;;3.80;;
17852;SDS011;9052;53.494;14.376;2024-02-26T03:12:24;8.47;;;4.63;;
17852;SDS011;9052;53.494;14.376;2024-02-26T03:14:53;9.50;;;4.43;;
17852;SDS011;9052;53.494;14.376;2024-02-26T03:17:20;5.83;;;5.33;;
17852;SDS011;9052;53.494;14.376;2024-02-26T03:19:49;5.27;;;4.77;;
17852;SDS011;9052;53.494;14.376;2024-02-26T03:22:18;5.60;;;4.60;;
17852;SDS011;9052;53.494;14.376;2024-02-26T03:24:46;4.60;;;4.30;;
17852;SDS011;9052;53.494;14.376;2024-02-26T03:27:13;7.73;;;4.20;;
17852;SDS011;9052;53.494;14.376;2024-02-26T03:29:41;6.27;;;4.50;;
17852;SDS011;9052;53.494;14.376;2024-02-26T03:32:08;9.70;;;4.30;;
17852;SDS011;9052;53.494;14.376;2024-02-26T03:34:35;5.60;;;4.53;;
17852;SDS011;9052;53.494;14.376;2024-02-26T03:37:04;4.27;;;3.87;;
17852;SDS011;9052;53.494;14.376;2024-02-26T03:39:31;3.90;;;3.60;;
17852;SDS011;9052;53.494;14.376;2024-02-26T03:41:58;7.77;;;4.63;;
17852;SDS011;9052;53.494;14.376;2024-02-26T03:44:25;9.63;;;4.60;;
17852;SDS011;9052;53.494;14.376;2024-02-26T03:46:54;6.00;;;4.07;;
17852;SDS011;9052;53.494;14.376;2024-02-26T03:49:21;5.60;;;4.37;;
17852;SDS011;9052;53.494;14.376;2024-02-26T03:51:48;7.27;;;4.40;;
17852;SDS011;9052;53.494;14.376;2024-02-26T03:54:15;8.80;;;5.43;;
17852;SDS011;9052;53.494;14.376;2024-02-26T03:56:42;4.77;;;3.53;;
17852;SDS011;9052;53.494;14.376;2024-02-26T03:59:09;3.50;;;3.30;;
17852;SDS011;9052;53.494;14.376;2024-02-26T04:01:36;3.57;;;3.27;;
17852;SDS011;9052;53.494;14.376;2024-02-26T04:04:05;5.60;;;4.37;;
17852;SDS011;9052;53.494;14.376;2024-02-26T04:06:32;3.77;;;3.57;;
17852;SDS011;9052;53.494;14.376;2024-02-26T04:08:59;3.57;;;3.33;;
17852;SDS011;9052;53.494;14.376;2024-02-26T04:11:28;4.87;;;3.93;;
17852;SDS011;9052;53.494;14.376;2024-02-26T04:13:56;3.50;;;3.20;;
17852;SDS011;9052;53.494;14.376;2024-02-26T04:16:23;6.00;;;3.50;;
17852;SDS011;9052;53.494;14.376;2024-02-26T04:18:50;6.17;;;3.80;;
17852;SDS011;9052;53.494;14.376;2024-02-26T04:21:20;3.53;;;3.23;;
17852;SDS011;9052;53.494;14.376;2024-02-26T04:23:47;3.97;;;3.03;;
17852;SDS011;9052;53.494;14.376;2024-02-26T04:26:14;4.60;;;3.37;;
17852;SDS011;9052;53.494;14.376;2024-02-26T04:28:41;4.07;;;3.07;;
17852;SDS011;9052;53.494;14.376;2024-02-26T04:31:08;3.53;;;2.93;;
17852;SDS011;9052;53.494;14.376;2024-02-26T04:33:35;4.60;;;3.43;;
17852;SDS011;9052;53.494;14.376;2024-02-26T04:36:02;4.20;;;3.90;;
17852;SDS011;9052;53.494;14.376;2024-02-26T04:38:31;3.60;;;3.30;;
17852;SDS011;9052;53.494;14.376;2024-02-26T04:40:58;4.33;;;3.77;;
17852;SDS011;9052;53.494;14.376;2024-02-26T04:43:25;2.80;;;2.60;;
17852;SDS011;9052;53.494;14.376;2024-02-26T04:45:52;4.40;;;3.13;;
17852;SDS011;9052;53.494;14.376;2024-02-26T04:48:19;3.90;;;3.37;;
17852;SDS011;9052;53.494;14.376;2024-02-26T04:50:46;3.53;;;3.20;;
17852;SDS011;9052;53.494;14.376;2024-02-26T04:53:13;3.87;;;3.30;;
17852;SDS011;9052;53.494;14.376;2024-02-26T04:55:42;9.07;;;6.43;;
17852;SDS011;9052;53.494;14.376;2024-02-26T04:58:09;7.90;;;4.87;;
17852;SDS011;9052;53.494;14.376;2024-02-26T05:00:37;7.37;;;3.90;;
17852;SDS011;9052;53.494;14.376;2024-02-26T05:03:04;9.33;;;6.43;;
17852;SDS011;9052;53.494;14.376;2024-02-26T05:05:33;15.90;;;6.67;;
17852;SDS011;9052;53.494;14.376;2024-02-26T05:08:00;15.20;;;6.70;;
17852;SDS011;9052;53.494;14.376;2024-02-26T05:10:28;21.20;;;10.17;;
17852;SDS011;9052;53.494;14.376;2024-02-26T05:12:56;23.50;;;9.70;;
17852;SDS011;9052;53.494;14.376;2024-02-26T05:15:23;26.20;;;9.83;;
17852;SDS011;9052;53.494;14.376;2024-02-26T05:17:50;13.50;;;7.33;;
17852;SDS011;9052;53.494;14.376;2024-02-26T05:20:18;8.73;;;6.77;;
17852;SDS011;9052;53.494;14.376;2024-02-26T05:22:45;12.43;;;7.03;;
17852;SDS011;9052;53.494;14.376;2024-02-26T05:25:14;10.23;;;5.80;;
17852;SDS011;9052;53.494;14.376;2024-02-26T05:27:41;9.80;;;6.30;;
17852;SDS011;9052;53.494;14.376;2024-02-26T05:30:12;15.03;;;6.13;;
17852;SDS011;9052;53.494;14.376;2024-02-26T05:32:39;7.23;;;4.63;;
17852;SDS011;9052;53.494;14.376;2024-02-26T05:35:07;12.07;;;6.70;;
17852;SDS011;9052;53.494;14.376;2024-02-26T05:37:34;12.33;;;5.50;;
17852;SDS011;9052;53.494;14.376;2024-02-26T05:40:01;14.97;;;5.93;;
17852;SDS011;9052;53.494;14.376;2024-02-26T05:42:29;8.20;;;5.50;;
17852;SDS011;9052;53.494;14.376;2024-02-26T05:44:56;13.37;;;6.23;;
17852;SDS011;9052;53.494;14.376;2024-02-26T05:47:25;13.20;;;5.70;;
17852;SDS011;9052;53.494;14.376;2024-02-26T05:49:52;11.83;;;5.00;;
17852;SDS011;9052;53.494;14.376;2024-02-26T05:52:20;10.87;;;6.50;;
17852;SDS011;9052;53.494;14.376;2024-02-26T05:54:47;13.13;;;7.00;;
17852;SDS011;9052;53.494;14.376;2024-02-26T05:57:14;28.40;;;8.50;;
17852;SDS011;9052;53.494;14.376;2024-02-26T05:59:41;15.13;;;6.90;;
17852;SDS011;9052;53.494;14.376;2024-02-26T06:02:08;18.30;;;9.40;;
17852;SDS011;9052;53.494;14.376;2024-02-26T06:04:38;18.00;;;8.63;;
17852;SDS011;9052;53.494;14.376;2024-02-26T06:07:05;81.13;;;13.53;;
17852;SDS011;9052;53.494;14.376;2024-02-26T06:09:33;19.57;;;9.50;;
17852;SDS011;9052;53.494;14.376;2024-02-26T06:12:00;18.53;;;8.80;;
17852;SDS011;9052;53.494;14.376;2024-02-26T06:14:27;22.37;;;9.30;;
17852;SDS011;9052;53.494;14.376;2024-02-26T06:16:54;15.50;;;8.17;;
17852;SDS011;9052;53.494;14.376;2024-02-26T06:19:21;19.87;;;10.17;;
17852;SDS011;9052;53.494;14.376;2024-02-26T06:21:50;71.37;;;11.93;;
17852;SDS011;9052;53.494;14.376;2024-02-26T06:24:16;20.77;;;10.17;;
17852;SDS011;9052;53.494;14.376;2024-02-26T06:26:45;28.60;;;11.10;;
17852;SDS011;9052;53.494;14.376;2024-02-26T06:29:12;35.00;;;12.67;;
17852;SDS011;9052;53.494;14.376;2024-02-26T06:31:39;40.97;;;9.13;;
17852;SDS011;9052;53.494;14.376;2024-02-26T06:34:07;13.17;;;9.30;;
17852;SDS011;9052;53.494;14.376;2024-02-26T06:36:34;41.13;;;10.10;;
17852;SDS011;9052;53.494;14.376;2024-02-26T06:39:02;29.63;;;10.03;;
17852;SDS011;9052;53.494;14.376;2024-02-26T06:41:30;11.30;;;7.13;;
17852;SDS011;9052;53.494;14.376;2024-02-26T06:43:57;11.53;;;8.03;;
17852;SDS011;9052;53.494;14.376;2024-02-26T06:46:24;9.30;;;7.67;;
17852;SDS011;9052;53.494;14.376;2024-02-26T06:48:54;17.20;;;9.47;;
17852;SDS011;9052;53.494;14.376;2024-02-26T06:51:21;47.73;;;11.00;;
17852;SDS011;9052;53.494;14.376;2024-02-26T06:53:48;49.03;;;13.10;;
17852;SDS011;9052;53.494;14.376;2024-02-26T06:56:17;24.50;;;11.80;;
17852;SDS011;9052;53.494;14.376;2024-02-26T06:58:44;59.53;;;12.73;;
17852;SDS011;9052;53.494;14.376;2024-02-26T07:01:11;97.03;;;17.33;;
17852;SDS011;9052;53.494;14.376;2024-02-26T07:03:40;29.23;;;12.13;;
17852;SDS011;9052;53.494;14.376;2024-02-26T07:06:07;19.30;;;10.77;;
17852;SDS011;9052;53.494;14.376;2024-02-26T07:08:35;29.83;;;12.07;;
17852;SDS011;9052;53.494;14.376;2024-02-26T07:11:02;20.40;;;11.57;;
17852;SDS011;9052;53.494;14.376;2024-02-26T07:13:30;19.23;;;12.10;;
17852;SDS011;9052;53.494;14.376;2024-02-26T07:15:57;15.70;;;9.10;;
17852;SDS011;9052;53.494;14.376;2024-02-26T07:18:24;23.33;;;9.50;;
17852;SDS011;9052;53.494;14.376;2024-02-26T07:20:51;12.90;;;9.30;;
17852;SDS011;9052;53.494;14.376;2024-02-26T07:23:18;33.50;;;11.20;;
17852;SDS011;9052;53.494;14.376;2024-02-26T07:25:45;32.30;;;10.20;;
17852;SDS011;9052;53.494;14.376;2024-02-26T07:28:14;23.60;;;9.63;;
17852;SDS011;9052;53.494;14.376;2024-02-26T07:30:43;15.00;;;9.70;;
17852;SDS011;9052;53.494;14.376;2024-02-26T07:33:10;16.57;;;9.17;;
17852;SDS011;9052;53.494;14.376;2024-02-26T07:35:37;13.93;;;8.37;;
17852;SDS011;9052;53.494;14.376;2024-02-26T07:38:04;13.80;;;8.93;;
17852;SDS011;9052;53.494;14.376;2024-02-26T07:40:31;30.63;;;9.23;;
17852;SDS011;9052;53.494;14.376;2024-02-26T07:42:59;21.83;;;7.90;;
17852;SDS011;9052;53.494;14.376;2024-02-26T07:45:29;10.70;;;7.20;;
17852;SDS011;9052;53.494;14.376;2024-02-26T07:48:00;9.47;;;7.80;;
17852;SDS011;9052;53.494;14.376;2024-02-26T07:50:27;10.20;;;7.27;;
17852;SDS011;9052;53.494;14.376;2024-02-26T07:52:54;12.67;;;8.67;;
17852;SDS011;9052;53.494;14.376;2024-02-26T07:55:22;19.87;;;8.37;;
17852;SDS011;9052;53.494;14.376;2024-02-26T07:57:48;12.20;;;8.17;;
17852;SDS011;9052;53.494;14.376;2024-02-26T08:00:16;11.13;;;8.10;;
17852;SDS011;9052;53.494;14.376;2024-02-26T08:02:43;15.20;;;10.07;;
17852;SDS011;9052;53.494;14.376;2024-02-26T08:05:12;15.07;;;9.80;;
17852;SDS011;9052;53.494;14.376;2024-02-26T08:07:39;13.67;;;10.10;;
17852;SDS011;9052;53.494;14.376;2024-02-26T08:10:06;19.03;;;12.00;;
17852;SDS011;9052;53.494;14.376;2024-02-26T08:12:34;14.33;;;10.53;;
17852;SDS011;9052;53.494;14.376;2024-02-26T08:15:01;14.73;;;10.37;;
17852;SDS011;9052;53.494;14.376;2024-02-26T08:17:28;13.70;;;9.43;;
17852;SDS011;9052;53.494;14.376;2024-02-26T08:19:55;12.40;;;9.33;;
17852;SDS011;9052;53.494;14.376;2024-02-26T08:22:24;11.70;;;9.90;;
17852;SDS011;9052;53.494;14.376;2024-02-26T08:24:51;14.90;;;9.77;;
17852;SDS011;9052;53.494;14.376;2024-02-26T08:27:18;11.77;;;10.20;;
17852;SDS011;9052;53.494;14.376;2024-02-26T08:29:45;13.13;;;11.80;;
17852;SDS011;9052;53.494;14.376;2024-02-26T08:32:12;16.67;;;10.60;;
17852;SDS011;9052;53.494;14.376;2024-02-26T08:34:38;13.40;;;11.60;;
17852;SDS011;9052;53.494;14.376;2024-02-26T08:37:06;16.57;;;12.07;;
17852;SDS011;9052;53.494;14.376;2024-02-26T08:39:34;16.83;;;12.33;;
17852;SDS011;9052;53.494;14.376;2024-02-26T08:42:03;14.43;;;12.90;;
17852;SDS011;9052;53.494;14.376;2024-02-26T08:44:30;21.03;;;13.30;;
17852;SDS011;9052;53.494;14.376;2024-02-26T08:46:57;23.57;;;15.60;;
17852;SDS011;9052;53.494;14.376;2024-02-26T08:49:24;31.93;;;15.43;;
17852;SDS011;9052;53.494;14.376;2024-02-26T08:51:51;20.30;;;15.30;;
17852;SDS011;9052;53.494;14.376;2024-02-26T08:54:18;19.30;;;16.33;;
17852;SDS011;9052;53.494;14.376;2024-02-26T08:56:47;22.13;;;12.90;;
17852;SDS011;9052;53.494;14.376;2024-02-26T08:59:14;18.57;;;14.07;;
17852;SDS011;9052;53.494;14.376;2024-02-26T09:01:41;21.90;;;15.30;;
17852;SDS011;9052;53.494;14.376;2024-02-26T09:04:08;17.70;;;14.17;;
17852;SDS011;9052;53.494;14.376;2024-02-26T09:06:35;16.87;;;14.30;;
17852;SDS011;9052;53.494;14.376;2024-02-26T09:09:02;26.40;;;15.40;;
17852;SDS011;9052;53.494;14.376;2024-02-26T09:11:29;14.80;;;13.10;;
17852;SDS011;9052;53.494;14.376;2024-02-26T09:13:58;16.70;;;13.73;;
17852;SDS011;9052;53.494;14.376;2024-02-26T09:16:25;20.57;;;14.43;;
17852;SDS011;9052;53.494;14.376;2024-02-26T09:18:52;16.00;;;12.57;;
17852;SDS011;9052;53.494;14.376;2024-02-26T09:21:19;13.30;;;11.47;;
17852;SDS011;9052;53.494;14.376;2024-02-26T09:23:48;13.37;;;10.10;;
17852;SDS011;9052;53.494;14.376;2024-02-26T09:26:15;18.03;;;12.03;;
17852;SDS011;9052;53.494;14.376;2024-02-26T09:28:43;12.80;;;10.93;;
17852;SDS011;9052;53.494;14.376;2024-02-26T09:31:11;15.67;;;10.17;;
17852;SDS011;9052;53.494;14.376;2024-02-26T09:33:41;12.17;;;9.87;;
17852;SDS011;9052;53.494;14.376;2024-02-26T09:36:08;17.03;;;10.03;;
17852;SDS011;9052;53.494;14.376;2024-02-26T09:38:36;17.13;;;9.77;;
17852;SDS011;9052;53.494;14.376;2024-02-26T09:41:03;11.30;;;8.80;;
17852;SDS011;9052;53.494;14.376;2024-02-26T09:43:33;15.50;;;10.90;;
17852;SDS011;9052;53.494;14.376;2024-02-26T09:46:01;16.50;;;10.53;;
17852;SDS011;9052;53.494;14.376;2024-02-26T09:48:30;12.37;;;9.67;;
17852;SDS011;9052;53.494;14.376;2024-02-26T09:50:58;14.17;;;10.63;;
17852;SDS011;9052;53.494;14.376;2024-02-26T09:53:25;12.17;;;9.97;;
17852;SDS011;9052;53.494;14.376;2024-02-26T09:55:53;21.07;;;12.57;;
17852;SDS011;9052;53.494;14.376;2024-02-26T09:58:21;15.70;;;13.03;;
17852;SDS011;9052;53.494;14.376;2024-02-26T10:00:49;21.13;;;12.63;;
17852;SDS011;9052;53.494;14.376;2024-02-26T10:03:18;23.50;;;16.20;;
17852;SDS011;9052;53.494;14.376;2024-02-26T10:05:49;19.07;;;15.10;;
17852;SDS011;9052;53.494;14.376;2024-02-26T10:08:20;17.87;;;12.67;;
17852;SDS011;9052;53.494;14.376;2024-02-26T10:10:48;15.27;;;11.07;;
17852;SDS011;9052;53.494;14.376;2024-02-26T10:13:15;15.00;;;12.37;;
17852;SDS011;9052;53.494;14.376;2024-02-26T10:15:42;13.67;;;10.77;;
17852;SDS011;9052;53.494;14.376;2024-02-26T10:18:09;15.30;;;11.70;;
17852;SDS011;9052;53.494;14.376;2024-02-26T10:20:37;17.10;;;10.93;;
17852;SDS011;9052;53.494;14.376;2024-02-26T10:23:05;13.90;;;10.53;;
17852;SDS011;9052;53.494;14.376;2024-02-26T10:25:32;16.90;;;10.20;;
17852;SDS011;9052;53.494;14.376;2024-02-26T10:27:59;19.40;;;10.83;;
17852;SDS011;9052;53.494;14.376;2024-02-26T10:30:28;16.87;;;12.57;;
17852;SDS011;9052;53.494;14.376;2024-02-26T10:32:56;12.87;;;10.37;;
17852;SDS011;9052;53.494;14.376;2024-02-26T10:35:23;14.20;;;10.20;;
17852;SDS011;9052;53.494;14.376;2024-02-26T10:37:51;13.13;;;11.00;;
17852;SDS011;9052;53.494;14.376;2024-02-26T10:40:20;12.87;;;10.30;;
17852;SDS011;9052;53.494;14.376;2024-02-26T10:42:47;21.50;;;11.43;;
17852;SDS011;9052;53.494;14.376;2024-02-26T10:45:14;16.80;;;10.43;;
17852;SDS011;9052;53.494;14.376;2024-02-26T10:47:41;14.67;;;10.53;;
17852;SDS011;9052;53.494;14.376;2024-02-26T10:50:09;15.50;;;11.00;;
17852;SDS011;9052;53.494;14.376;2024-02-26T10:52:36;15.33;;;11.53;;
17852;SDS011;9052;53.494;14.376;2024-02-26T10:55:04;16.37;;;11.43;;
17852;SDS011;9052;53.494;14.376;2024-02-26T10:57:38;18.07;;;10.77;;
17852;SDS011;9052;53.494;14.376;2024-02-26T11:00:07;15.23;;;11.03;;
17852;SDS011;9052;53.494;14.376;2024-02-26T11:02:37;13.87;;;10.47;;
17852;SDS011;9052;53.494;14.376;2024-02-26T11:05:05;13.47;;;11.10;;
17852;SDS011;9052;53.494;14.376;2024-02-26T11:07:33;12.73;;;10.70;;
17852;SDS011;9052;53.494;14.376;2024-02-26T11:10:02;20.30;;;11.80;;
17852;SDS011;9052;53.494;14.376;2024-02-26T11:12:30;20.40;;;12.90;;
17852;SDS011;9052;53.494;14.376;2024-02-26T11:15:02;15.50;;;12.10;;
17852;SDS011;9052;53.494;14.376;2024-02-26T11:17:30;18.20;;;12.17;;
17852;SDS011;9052;53.494;14.376;2024-02-26T11:19:59;19.70;;;12.40;;
17852;SDS011;9052;53.494;14.376;2024-02-26T11:22:27;17.00;;;11.93;;
17852;SDS011;9052;53.494;14.376;2024-02-26T11:24:55;21.90;;;12.13;;
17852;SDS011;9052;53.494;14.376;2024-02-26T11:27:23;17.97;;;12.40;;
17852;SDS011;9052;53.494;14.376;2024-02-26T11:29:55;19.30;;;12.67;;
17852;SDS011;9052;53.494;14.376;2024-02-26T11:32:26;21.23;;;14.00;;
17852;SDS011;9052;53.494;14.376;2024-02-26T11:34:55;23.13;;;14.93;;
17852;SDS011;9052;53.494;14.376;2024-02-26T11:37:23;26.27;;;15.73;;
17852;SDS011;9052;53.494;14.376;2024-02-26T11:39:51;28.37;;;17.37;;
17852;SDS011;9052;53.494;14.376;2024-02-26T11:42:27;28.17;;;16.00;;
17852;SDS011;9052;53.494;14.376;2024-02-26T11:44:55;75.20;;;28.27;;
17852;SDS011;9052;53.494;14.376;2024-02-26T11:47:26;68.63;;;27.77;;
17852;SDS011;9052;53.494;14.376;2024-02-26T11:49:53;65.17;;;24.90;;
17852;SDS011;9052;53.494;14.376;2024-02-26T11:52:20;41.17;;;19.63;;
17852;SDS011;9052;53.494;14.376;2024-02-26T11:54:48;39.90;;;19.00;;
17852;SDS011;9052;53.494;14.376;2024-02-26T11:57:23;91.47;;;35.27;;
17852;SDS011;9052;53.494;14.376;2024-02-26T11:59:54;72.60;;;29.20;;
17852;SDS011;9052;53.494;14.376;2024-02-26T12:02:43;54.53;;;22.90;;
17852;SDS011;9052;53.494;14.376;2024-02-26T12:05:12;76.97;;;34.10;;
17852;SDS011;9052;53.494;14.376;2024-02-26T12:07:42;102.60;;;40.07;;
17852;SDS011;9052;53.494;14.376;2024-02-26T12:10:24;102.43;;;45.97;;
17852;SDS011;9052;53.494;14.376;2024-02-26T12:12:53;112.83;;;47.23;;
17852;SDS011;9052;53.494;14.376;2024-02-26T12:15:23;106.47;;;40.33;;
17852;SDS011;9052;53.494;14.376;2024-02-26T12:17:52;58.60;;;31.37;;
17852;SDS011;9052;53.494;14.376;2024-02-26T12:20:20;53.07;;;28.27;;
17852;SDS011;9052;53.494;14.376;2024-02-26T12:22:47;48.97;;;25.87;;
17852;SDS011;9052;53.494;14.376;2024-02-26T12:25:17;42.63;;;22.40;;
17852;SDS011;9052;53.494;14.376;2024-02-26T12:27:49;46.00;;;20.70;;
17852;SDS011;9052;53.494;14.376;2024-02-26T12:30:16;29.63;;;17.10;;
17852;SDS011;9052;53.494;14.376;2024-02-26T12:32:44;22.27;;;15.77;;
17852;SDS011;9052;53.494;14.376;2024-02-26T12:35:13;28.77;;;18.27;;
17852;SDS011;9052;53.494;14.376;2024-02-26T12:37:41;26.87;;;17.03;;
17852;SDS011;9052;53.494;14.376;2024-02-26T12:40:35;42.13;;;19.57;;
17852;SDS011;9052;53.494;14.376;2024-02-26T12:43:02;37.23;;;16.50;;
17852;SDS011;9052;53.494;14.376;2024-02-26T12:45:29;17.47;;;12.57;;
17852;SDS011;9052;53.494;14.376;2024-02-26T12:47:57;13.57;;;9.47;;
17852;SDS011;9052;53.494;14.376;2024-02-26T12:50:27;11.30;;;9.90;;
17852;SDS011;9052;53.494;14.376;2024-02-26T12:52:57;18.90;;;9.83;;
17852;SDS011;9052;53.494;14.376;2024-02-26T12:55:27;14.03;;;10.87;;
17852;SDS011;9052;53.494;14.376;2024-02-26T12:57:57;13.10;;;8.87;;
17852;SDS011;9052;53.494;14.376;2024-02-26T13:00:26;11.83;;;8.70;;
17852;SDS011;9052;53.494;14.376;2024-02-26T13:02:54;13.10;;;8.70;;
17852;SDS011;9052;53.494;14.376;2024-02-26T13:05:22;15.50;;;8.13;;
17852;SDS011;9052;53.494;14.376;2024-02-26T13:07:51;16.30;;;7.57;;
17852;SDS011;9052;53.494;14.376;2024-02-26T13:10:18;12.40;;;9.10;;
17852;SDS011;9052;53.494;14.376;2024-02-26T13:12:46;8.80;;;7.30;;
17852;SDS011;9052;53.494;14.376;2024-02-26T13:15:22;9.80;;;7.93;;
17852;SDS011;9052;53.494;14.376;2024-02-26T13:18:08;9.20;;;7.67;;
17852;SDS011;9052;53.494;14.376;2024-02-26T13:20:38;10.00;;;8.50;;
17852;SDS011;9052;53.494;14.376;2024-02-26T13:23:09;8.83;;;8.00;;
17852;SDS011;9052;53.494;14.376;2024-02-26T13:25:41;10.40;;;7.83;;
17852;SDS011;9052;53.494;14.376;2024-02-26T13:28:08;12.50;;;8.57;;
17852;SDS011;9052;53.494;14.376;2024-02-26T13:30:36;11.83;;;8.60;;
17852;SDS011;9052;53.494;14.376;2024-02-26T13:33:09;12.77;;;8.33;;
17852;SDS011;9052;53.494;14.376;2024-02-26T13:35:37;10.33;;;9.33;;
17852;SDS011;9052;53.494;14.376;2024-02-26T13:38:05;12.90;;;9.00;;
17852;SDS011;9052;53.494;14.376;2024-02-26T13:40:36;17.67;;;9.83;;
17852;SDS011;9052;53.494;14.376;2024-02-26T13:43:03;15.60;;;9.47;;
17852;SDS011;9052;53.494;14.376;2024-02-26T13:45:30;13.30;;;9.27;;
17852;SDS011;9052;53.494;14.376;2024-02-26T13:48:01;9.90;;;8.47;;
17852;SDS011;9052;53.494;14.376;2024-02-26T13:50:50;11.07;;;8.50;;
17852;SDS011;9052;53.494;14.376;2024-02-26T13:53:20;11.40;;;8.27;;
17852;SDS011;9052;53.494;14.376;2024-02-26T13:55:54;9.57;;;8.50;;
17852;SDS011;9052;53.494;14.376;2024-02-26T13:58:44;16.93;;;8.97;;
17852;SDS011;9052;53.494;14.376;2024-02-26T14:01:20;19.67;;;8.03;;
17852;SDS011;9052;53.494;14.376;2024-02-26T14:06:42;7.97;;;7.00;;
17852;SDS011;9052;53.494;14.376;2024-02-26T14:09:09;9.47;;;8.40;;
17852;SDS011;9052;53.494;14.376;2024-02-26T14:11:38;10.73;;;8.43;;
17852;SDS011;9052;53.494;14.376;2024-02-26T14:14:22;9.13;;;7.10;;
17852;SDS011;9052;53.494;14.376;2024-02-26T14:16:49;22.53;;;7.57;;
17852;SDS011;9052;53.494;14.376;2024-02-26T14:19:16;13.50;;;8.10;;
17852;SDS011;9052;53.494;14.376;2024-02-26T14:21:43;13.83;;;7.60;;
17852;SDS011;9052;53.494;14.376;2024-02-26T14:24:10;9.03;;;7.10;;
17852;SDS011;9052;53.494;14.376;2024-02-26T14:26:38;14.30;;;8.50;;
17852;SDS011;9052;53.494;14.376;2024-02-26T14:29:07;11.50;;;9.03;;
17852;SDS011;9052;53.494;14.376;2024-02-26T14:31:35;9.87;;;7.23;;
17852;SDS011;9052;53.494;14.376;2024-02-26T14:34:03;10.00;;;7.87;;
17852;SDS011;9052;53.494;14.376;2024-02-26T14:36:30;12.43;;;8.43;;
17852;SDS011;9052;53.494;14.376;2024-02-26T14:38:58;13.20;;;6.87;;
17852;SDS011;9052;53.494;14.376;2024-02-26T14:41:25;12.43;;;6.50;;